createdAt,value
2019-03-12T14:25:03.916Z,71.60
2019-03-12T14:27:32.536Z,68.98
2019-03-12T14:30:01.082Z,68.90
2019-03-12T14:32:29.737Z,67.87
2019-03-12T14:34:58.361Z,67.91
2019-03-12T14:37:26.963Z,68.31
2019-03-12T14:39:55.648Z,68.85
2019-03-12T14:42:24.268Z,69.41
2019-03-12T14:44:52.890Z,66.84
2019-03-12T14:47:21.545Z,66.54
2019-03-12T14:49:50.174Z,65.81
2019-03-12T14:52:18.902Z,66.25
2019-03-12T14:54:47.555Z,66.13
2019-03-12T14:57:16.257Z,64.70
2019-03-12T14:59:44.887Z,63.49
2019-03-12T15:02:13.646Z,66.85
2019-03-12T15:04:42.272Z,64.51
2019-03-12T15:07:10.890Z,65.84
2019-03-12T15:09:39.560Z,65.34
2019-03-12T15:12:11.444Z,64.00
2019-03-12T15:14:38.528Z,64.29
2019-03-12T15:17:07.178Z,63.00
2019-03-12T15:19:35.803Z,64.26
2019-03-12T15:22:04.420Z,63.50
2019-03-12T15:24:35.962Z,63.08
2019-03-12T15:27:03.419Z,64.03
2019-03-12T15:29:32.078Z,65.62
2019-03-12T15:32:04.360Z,62.55
2019-03-12T15:34:31.053Z,60.83
2019-03-12T15:36:59.751Z,57.98
2019-03-12T15:39:28.430Z,58.63
2019-03-12T15:41:57.056Z,58.15
2019-03-12T15:44:25.674Z,59.53
2019-03-12T15:46:54.333Z,58.56
2019-03-12T15:49:22.956Z,60.07
2019-03-12T15:51:51.587Z,59.74
2019-03-12T15:54:20.397Z,59.91
2019-03-12T15:56:49.184Z,60.73
2019-03-12T15:59:17.816Z,59.68
2019-03-12T16:01:46.484Z,57.88
2019-03-12T16:04:15.030Z,57.47
2019-03-12T16:06:43.659Z,59.92
2019-03-12T16:09:12.316Z,61.25
2019-03-12T16:11:40.952Z,61.62
2019-03-12T16:14:09.571Z,61.39
2019-03-12T16:16:38.248Z,59.86
2019-03-12T16:19:06.888Z,58.21
2019-03-12T16:21:35.514Z,59.91
2019-03-12T16:24:04.378Z,58.79
2019-03-12T16:26:32.999Z,57.68
2019-03-12T16:29:01.625Z,57.04
2019-03-12T16:31:30.295Z,57.43
2019-03-12T16:33:58.905Z,57.62
2019-03-12T16:36:27.560Z,57.41
2019-03-12T16:38:56.216Z,57.44
2019-03-12T16:41:24.832Z,58.10
2019-03-12T16:43:53.456Z,57.96
2019-03-12T16:46:22.114Z,58.41
2019-03-12T16:48:50.835Z,59.47
2019-03-12T16:51:19.449Z,58.44
2019-03-12T16:53:48.125Z,58.92
2019-03-12T16:56:16.752Z,59.06
2019-03-12T16:58:45.317Z,59.01
2019-03-12T17:01:13.991Z,59.87
2019-03-12T17:03:42.635Z,58.63
2019-03-12T17:06:11.262Z,58.86
2019-03-12T17:08:39.934Z,58.53
2019-03-12T17:11:08.565Z,59.13
2019-03-12T17:13:37.187Z,59.17
2019-03-12T17:16:05.847Z,58.15
2019-03-12T17:18:34.477Z,58.20
2019-03-12T17:21:03.099Z,58.60
2019-03-12T17:23:31.769Z,59.07
2019-03-12T17:26:00.396Z,60.32
2019-03-12T17:28:29.021Z,59.19
2019-03-12T17:30:59.142Z,58.52
2019-03-12T17:33:27.771Z,57.14
2019-03-12T17:35:56.395Z,57.25
2019-03-12T17:38:25.155Z,57.63
2019-03-12T17:40:53.849Z,58.15
2019-03-12T17:43:22.485Z,56.79
2019-03-12T17:45:51.169Z,57.85
2019-03-12T17:48:19.791Z,59.59
2019-03-12T17:50:48.420Z,58.60
2019-03-12T17:53:17.076Z,60.31
2019-03-12T17:55:48.667Z,59.49
2019-03-12T17:58:17.302Z,59.68
2019-03-12T18:00:46.039Z,57.85
2019-03-12T18:03:14.657Z,59.51
2019-03-12T18:05:43.279Z,62.03
2019-03-12T18:08:11.950Z,58.39
2019-03-12T18:10:40.570Z,59.51
2019-03-12T18:13:09.222Z,59.42
2019-03-12T18:15:38.000Z,58.96
2019-03-12T18:18:06.638Z,62.04
2019-03-12T18:20:35.263Z,62.30
2019-03-12T18:23:03.925Z,62.76
2019-03-12T18:25:37.649Z,61.42
2019-03-12T18:28:07.897Z,62.21
2019-03-12T18:30:37.784Z,62.18
2019-03-12T18:33:06.394Z,62.63
2019-03-12T18:35:35.027Z,62.45
2019-03-12T18:38:03.777Z,61.12
2019-03-12T18:40:32.405Z,61.26
2019-03-12T18:43:01.127Z,62.27
2019-03-12T18:45:31.471Z,62.33
2019-03-12T18:48:00.167Z,63.27
2019-03-12T18:50:28.860Z,63.87
2019-03-12T18:52:57.807Z,63.21
2019-03-12T18:55:38.203Z,62.18
2019-03-12T18:58:07.186Z,63.51
2019-03-12T19:00:36.575Z,63.86
2019-03-12T19:03:05.275Z,63.71
2019-03-12T19:05:34.001Z,64.09
2019-03-12T19:08:02.691Z,65.56
2019-03-12T19:10:33.075Z,64.86
2019-03-12T19:13:01.833Z,65.09
2019-03-12T19:15:30.710Z,63.34
2019-03-12T19:17:59.409Z,63.72
2019-03-12T19:20:28.246Z,64.71
2019-03-12T19:22:56.949Z,66.35
2019-03-12T19:25:31.542Z,64.18
2019-03-12T19:28:00.652Z,64.93
2019-03-12T19:30:29.469Z,65.63
2019-03-12T19:33:05.447Z,64.55
2019-03-12T19:35:34.574Z,65.19
2019-03-12T19:38:03.680Z,64.92
2019-03-12T19:40:46.476Z,64.87
2019-03-12T19:43:16.647Z,64.65
2019-03-12T19:45:49.505Z,64.49
2019-03-12T19:48:18.197Z,63.10
2019-03-12T19:50:46.886Z,62.46
2019-03-12T19:53:15.724Z,60.22
2019-03-12T19:55:59.264Z,59.97
2019-03-12T19:58:28.692Z,61.53
2019-03-12T20:01:00.977Z,60.66
2019-03-12T20:03:29.675Z,59.75
2019-03-12T20:05:58.403Z,59.86
2019-03-12T20:08:27.109Z,60.34
2019-03-12T20:11:31.655Z,61.83
2019-03-12T20:14:37.252Z,61.59
2019-03-12T20:17:14.910Z,61.67
2019-03-12T20:20:03.180Z,61.92
2019-03-12T20:22:58.588Z,62.49
2019-03-12T20:25:49.409Z,62.26
2019-03-12T20:28:37.571Z,61.92
2019-03-12T20:31:21.057Z,61.78
2019-03-12T20:34:27.420Z,64.39
2019-03-12T20:37:18.192Z,61.74
2019-03-12T20:40:06.306Z,60.40
2019-03-12T20:43:09.573Z,59.45
2019-03-12T20:45:53.176Z,58.12
2019-03-12T20:48:42.747Z,58.15
2019-03-12T20:51:42.939Z,58.87
2019-03-12T20:54:36.599Z,58.84
2019-03-12T20:57:24.606Z,60.39
2019-03-12T21:00:02.338Z,60.68
2019-03-12T21:02:56.627Z,59.77
2019-03-12T21:05:46.190Z,60.20
2019-03-12T21:08:34.090Z,59.72
2019-03-12T21:11:38.797Z,62.82
2019-03-12T21:14:29.810Z,60.80
2019-03-12T21:17:01.414Z,59.98
2019-03-12T21:19:58.203Z,60.71
2019-03-12T21:22:41.959Z,61.92
2019-03-12T21:25:19.217Z,60.46
2019-03-12T21:28:08.332Z,59.46
2019-03-12T21:30:37.057Z,57.64
2019-03-12T21:33:14.712Z,59.01
2019-03-12T21:35:36.117Z,59.03
2019-03-12T21:38:04.895Z,59.01
2019-03-12T21:40:33.532Z,56.60
2019-03-12T21:43:02.237Z,57.59
2019-03-12T21:45:31.018Z,56.58
2019-03-12T21:47:59.714Z,56.88
2019-03-12T21:50:28.339Z,57.05
2019-03-12T21:52:57.006Z,56.71
2019-03-12T21:55:25.623Z,57.00
2019-03-12T21:57:54.251Z,56.34
2019-03-12T22:00:22.894Z,56.40
2019-03-12T22:02:51.514Z,56.65
2019-03-12T22:05:20.145Z,56.00
2019-03-12T22:07:48.802Z,57.54
2019-03-12T22:10:17.442Z,57.03
2019-03-12T22:12:46.060Z,58.18
2019-03-12T22:15:14.909Z,58.35
2019-03-12T22:17:43.613Z,58.02
2019-03-12T22:20:15.415Z,59.35
2019-03-12T22:22:45.805Z,59.00
2019-03-12T22:25:14.502Z,58.98
2019-03-12T22:27:43.128Z,59.84
2019-03-12T22:30:17.842Z,61.04
2019-03-12T22:32:46.475Z,60.67
2019-03-12T22:35:15.105Z,60.73
2019-03-12T22:37:43.774Z,61.15
2019-03-12T22:40:15.615Z,61.00
2019-03-12T22:42:44.241Z,60.92
2019-03-12T22:45:13.116Z,59.24
2019-03-12T22:47:41.744Z,62.11
2019-03-12T22:50:16.994Z,61.18
2019-03-12T22:52:45.657Z,60.46
2019-03-12T22:55:14.694Z,60.70
2019-03-12T22:57:43.320Z,59.57
2019-03-12T23:00:18.258Z,59.54
2019-03-12T23:02:46.950Z,58.87
2019-03-12T23:05:15.770Z,59.34
2019-03-12T23:07:44.611Z,59.30
2019-03-12T23:10:14.820Z,60.17
2019-03-12T23:12:43.851Z,59.39
2019-03-12T23:15:17.570Z,59.58
2019-03-12T23:17:46.186Z,59.69
2019-03-12T23:20:17.718Z,59.12
2019-03-12T23:22:46.479Z,58.18
2019-03-12T23:25:15.209Z,57.57
2019-03-12T23:27:43.903Z,57.01
2019-03-12T23:30:17.885Z,58.36
2019-03-12T23:32:46.638Z,58.43
2019-03-12T23:35:15.461Z,58.05
2019-03-12T23:37:44.123Z,57.86
2019-03-12T23:40:16.867Z,57.95
2019-03-12T23:42:45.590Z,57.69
2019-03-12T23:45:15.851Z,58.08
2019-03-12T23:47:44.876Z,57.50
2019-03-12T23:50:15.776Z,58.92
2019-03-12T23:52:44.434Z,60.91
2019-03-12T23:55:14.964Z,61.28
2019-03-12T23:57:43.880Z,61.09
